Time;durP1;ratioP1;P1;durP2;ratioP2;P2;SDS_P1;SDS_P2;PMS_P1;PMS_P2;Temp;Humidity;BMP_temperature;BMP_pressure;BME280_temperature;BME280_humidity;BME280_pressure;Samples;Min_cycle;Max_cycle;Signal;HPM_P1;HPM_P2
2023/09/07 00:00:05;;;;;;;;;;;;;;;;;;5082668;28;20014;-68
2023/09/07 00:02:32;;;;;;;;;;;;;;;;;;5074688;28;20035;-68
2023/09/07 00:04:59;;;;;;;;;;;;;;;;;;5069692;28;19968;-68
2023/09/07 00:07:25;;;;;;;;;;;;;;;;;;5074774;28;19976;-69
2023/09/07 00:09:53;;;;;;;;;;;;;;;;;;5075745;28;20406;-68
2023/09/07 00:12:20;;;;;;;;;;;;;;;;;;5079250;28;19979;-68
2023/09/07 00:14:47;;;;;;;;;;;;;;;;;;5073899;28;19986;-68
2023/09/07 00:17:14;;;;;;;;;;;;;;;;;;5074299;28;20028;-68
2023/09/07 00:19:41;;;;;;;;;;;;;;;;;;5078410;28;19931;-67
2023/09/07 00:22:09;;;;;;;;;;;;;;;;;;5066682;28;19989;-67
2023/09/07 00:24:36;;;;;;;;;;;;;;;;;;5074934;28;19924;-67
2023/09/07 00:27:07;;;;;;;;;;;;;;;;;;5073811;28;19986;-67
2023/09/07 00:29:34;;;;;;;;;;;;;;;;;;5064650;28;20381;-67
2023/09/07 00:32:01;;;;;;;;;;;;;;;;;;5073954;28;19925;-69
2023/09/07 00:34:28;;;;;;;;;;;;;;;;;;5060935;28;19979;-68
2023/09/07 00:36:55;;;;;;;;;;;;;;;;;;5060249;28;20261;-68
2023/09/07 00:39:22;;;;;;;;;;;;;;;;;;5065310;28;19924;-68
2023/09/07 00:41:49;;;;;;;;;;;;;;;;;;5073141;28;19925;-68
2023/09/07 00:44:16;;;;;;;;;;;;;;;;;;5069904;28;19928;-68
2023/09/07 00:46:44;;;;;;;;;;;;;;;;;;5073370;28;19924;-68
2023/09/07 00:49:11;;;;;;;;;;;;;;;;;;5080400;28;19971;-68
2023/09/07 00:51:38;;;;;;;;;;;;;;;;;;5054920;28;19986;-67
2023/09/07 00:54:05;;;;;;;;;;;;;;;;;;5069927;28;20299;-68
2023/09/07 00:56:32;;;;;;;;;;;;;;;;;;5071809;28;19924;-68
2023/09/07 00:59:00;;;;;;;;;;;;;;;;;;5086425;28;19924;-68
2023/09/07 01:01:27;;;;;;;;;;;;;;;;;;5071551;28;20360;-68
2023/09/07 01:03:57;;;;;;;;;;;;;;;;;;5071505;28;19970;-68
2023/09/07 01:06:24;;;;;;;;;;;;;;;;;;5074166;28;19970;-68
2023/09/07 01:08:51;;;;;;;;;;;;;;;;;;5072749;28;19924;-68
2023/09/07 01:11:20;;;;;;;;;;;;;;;;;;5071873;28;19935;-68
2023/09/07 01:13:47;;;;;;;;;;;;;;;;;;5068727;28;20380;-68
2023/09/07 01:16:14;;;;;;;;;;;;;;;;;;5064713;28;19925;-68
2023/09/07 01:18:41;;;;;;;;;;;;;;;;;;5083201;28;19925;-68
2023/09/07 01:21:08;;;;;;;;;;;;;;;;;;5060468;28;19925;-68
2023/09/07 01:23:35;;;;;;;;;;;;;;;;;;5053869;28;20015;-68
2023/09/07 01:26:02;;;;;;;;;;;;;;;;;;5056397;28;19924;-68
2023/09/07 01:28:29;;;;;;;;;;;;;;;;;;5084655;28;20271;-68
2023/09/07 01:30:56;;;;;;;;;;;;;;;;;;5070293;28;19932;-68
2023/09/07 01:33:23;;;;;;;;;;;;;;;;;;5085721;28;20016;-68
2023/09/07 01:35:50;;;;;;;;;;;;;;;;;;5093318;28;19924;-68
2023/09/07 01:38:17;;;;;;;;;;;;;;;;;;5079817;28;19925;-68
2023/09/07 01:40:44;;;;;;;;;;;;;;;;;;5072564;28;19971;-68
2023/09/07 01:43:11;;;;;;;;;;;;;;;;;;5072845;28;19924;-68
2023/09/07 01:45:38;;;;;;;;;;;;;;;;;;5070235;28;20054;-69
2023/09/07 01:48:05;;;;;;;;;;;;;;;;;;5075379;28;20052;-69
2023/09/07 01:50:32;;;;;;;;;;;;;;;;;;5065379;28;19974;-67
2023/09/07 01:52:59;;;;;;;;;;;;;;;;;;5070675;28;19980;-67
2023/09/07 01:55:26;;;;;;;;;;;;;;;;;;5073647;28;19998;-68
2023/09/07 01:57:53;;;;;;;;;;;;;;;;;;5076823;28;20286;-68
2023/09/07 02:00:20;;;;;;;;;;;;;;;;;;5068792;28;19968;-68
2023/09/07 02:02:47;;;;;;;;;;;;;;;;;;5068190;28;20029;-68
2023/09/07 02:05:14;;;;;;;;;;;;;;;;;;5072503;28;20053;-68
2023/09/07 02:07:41;;;;;;;;;;;;;;;;;;5072664;28;20053;-68
2023/09/07 02:10:09;;;;;;;;;;;;;;;;;;5072767;28;19924;-68
2023/09/07 02:12:36;;;;;;;;;;;;;;;;;;5070932;28;19924;-67
2023/09/07 02:15:03;;;;;;;;;;;;;;;;;;5079852;28;19959;-68
2023/09/07 02:17:30;;;;;;;;;;;;;;;;;;5070150;28;19960;-68
2023/09/07 02:19:57;;;;;;;;;;;;;;;;;;5083443;28;19985;-68
2023/09/07 02:22:24;;;;;;;;;;;;;;;;;;5072109;28;19970;-69
2023/09/07 02:24:51;;;;;;;;;;;;;;;;;;5081776;28;20378;-68
2023/09/07 02:27:18;;;;;;;;;;;;;;;;;;5068200;28;19924;-67
2023/09/07 02:29:44;;;;;;;;;;;;;;;;;;5071967;28;19963;-68
2023/09/07 02:32:12;;;;;;;;;;;;;;;;;;5071684;28;19986;-68
2023/09/07 02:34:39;;;;;;;;;;;;;;;;;;5087633;28;19932;-68
2023/09/07 02:37:06;;;;;;;;;;;;;;;;;;5068445;28;19925;-68
2023/09/07 02:39:33;;;;;;;;;;;;;;;;;;5072430;28;19970;-68
2023/09/07 02:42:00;;;;;;;;;;;;;;;;;;5071773;28;19924;-67
2023/09/07 02:44:27;;;;;;;;;;;;;;;;;;5085524;28;19977;-68
2023/09/07 02:46:54;;;;;;;;;;;;;;;;;;5080739;28;19924;-68
2023/09/07 02:49:21;;;;;;;;;;;;;;;;;;5070632;28;19994;-67
2023/09/07 02:51:48;;;;;;;;;;;;;;;;;;5071660;28;19970;-68
2023/09/07 02:54:15;;;;;;;;;;;;;;;;;;5072815;28;20021;-67
2023/09/07 02:56:42;;;;;;;;;;;;;;;;;;5072154;28;19924;-67
2023/09/07 02:59:09;;;;;;;;;;;;;;;;;;5068039;28;19994;-68
2023/09/07 03:01:36;;;;;;;;;;;;;;;;;;5068454;28;19925;-67
2023/09/07 03:04:04;;;;;;;;;;;;;;;;;;5066910;28;19932;-68
2023/09/07 03:06:31;;;;;;;;;;;;;;;;;;5078963;28;19947;-68
2023/09/07 03:08:58;;;;;;;;;;;;;;;;;;5071381;28;19993;-68
2023/09/07 03:11:25;;;;;;;;;;;;;;;;;;5070795;28;19983;-68
2023/09/07 03:13:52;;;;;;;;;;;;;;;;;;5069387;28;20204;-68
2023/09/07 03:16:19;;;;;;;;;;;;;;;;;;5071231;28;19978;-68
2023/09/07 03:18:46;;;;;;;;;;;;;;;;;;5077362;28;19928;-68
2023/09/07 03:21:13;;;;;;;;;;;;;;;;;;5074384;28;19924;-68
2023/09/07 03:23:44;;;;;;;;;;;;;;;;;;5072183;28;20299;-68
2023/09/07 03:26:11;;;;;;;;;;;;;;;;;;5074986;28;20314;-68
2023/09/07 03:28:38;;;;;;;;;;;;;;;;;;5060728;28;20013;-68
2023/09/07 03:31:05;;;;;;;;;;;;;;;;;;5065641;28;20452;-68
2023/09/07 03:33:32;;;;;;;;;;;;;;;;;;5069197;28;19925;-68
2023/09/07 03:35:59;;;;;;;;;;;;;;;;;;5065189;28;19925;-68
2023/09/07 03:38:26;;;;;;;;;;;;;;;;;;5066328;28;19925;-68
2023/09/07 03:40:53;;;;;;;;;;;;;;;;;;5067401;28;20346;-68
2023/09/07 03:43:20;;;;;;;;;;;;;;;;;;5071749;28;19998;-67
2023/09/07 03:45:47;;;;;;;;;;;;;;;;;;5067882;28;19978;-68
2023/09/07 03:48:14;;;;;;;;;;;;;;;;;;5070592;28;19970;-68
2023/09/07 03:50:42;;;;;;;;;;;;;;;;;;5064598;28;19928;-68
2023/09/07 03:53:09;;;;;;;;;;;;;;;;;;5082140;28;20403;-68
2023/09/07 03:55:36;;;;;;;;;;;;;;;;;;5066079;28;19986;-68
2023/09/07 03:58:03;;;;;;;;;;;;;;;;;;5071471;28;19925;-67
2023/09/07 04:00:30;;;;;;;;;;;;;;;;;;5070072;28;19933;-68
2023/09/07 04:02:57;;;;;;;;;;;;;;;;;;5070120;28;20007;-67
2023/09/07 04:05:24;;;;;;;;;;;;;;;;;;5080673;28;19998;-68
2023/09/07 04:07:51;;;;;;;;;;;;;;;;;;5063444;28;19924;-68
2023/09/07 04:10:18;;;;;;;;;;;;;;;;;;5055302;28;19925;-68
2023/09/07 04:12:46;;;;;;;;;;;;;;;;;;5075114;28;19928;-68
2023/09/07 04:15:13;;;;;;;;;;;;;;;;;;5064512;28;19986;-68
2023/09/07 04:17:41;;;;;;;;;;;;;;;;;;5078582;28;19973;-68
2023/09/07 04:20:08;;;;;;;;;;;;;;;;;;5077477;28;20361;-68
2023/09/07 04:22:35;;;;;;;;;;;;;;;;;;5072564;28;19924;-69
2023/09/07 04:25:02;;;;;;;;;;;;;;;;;;5075118;28;20352;-67
2023/09/07 04:27:29;;;;;;;;;;;;;;;;;;5077185;28;19978;-67
2023/09/07 04:29:56;;;;;;;;;;;;;;;;;;5084838;28;19924;-67
2023/09/07 04:32:23;;;;;;;;;;;;;;;;;;5068591;28;20367;-67
2023/09/07 04:34:50;;;;;;;;;;;;;;;;;;5074187;28;19939;-67
2023/09/07 04:37:17;;;;;;;;;;;;;;;;;;5058326;28;19925;-67
2023/09/07 04:39:44;;;;;;;;;;;;;;;;;;5054286;28;19971;-67
2023/09/07 04:42:11;;;;;;;;;;;;;;;;;;5063379;28;20346;-67
2023/09/07 04:44:38;;;;;;;;;;;;;;;;;;5072999;28;19924;-67
2023/09/07 04:47:05;;;;;;;;;;;;;;;;;;5071857;28;19964;-67
2023/09/07 04:49:32;;;;;;;;;;;;;;;;;;5072675;28;20428;-67
2023/09/07 04:51:59;;;;;;;;;;;;;;;;;;5077362;28;19970;-67
2023/09/07 04:54:26;;;;;;;;;;;;;;;;;;5055312;28;19968;-67
2023/09/07 04:56:53;;;;;;;;;;;;;;;;;;5054058;28;19975;-67
2023/09/07 04:59:20;;;;;;;;;;;;;;;;;;5053551;28;20304;-67
2023/09/07 05:01:47;;;;;;;;;;;;;;;;;;5081236;28;19928;-67
2023/09/07 05:04:14;;;;;;;;;;;;;;;;;;5076017;28;19924;-67
2023/09/07 05:06:43;;;;;;;;;;;;;;;;;;5074362;28;19928;-67
2023/09/07 05:09:10;;;;;;;;;;;;;;;;;;5073713;28;19960;-66
2023/09/07 05:11:37;;;;;;;;;;;;;;;;;;5071233;28;19978;-67
2023/09/07 05:14:04;;;;;;;;;;;;;;;;;;5073532;28;19936;-67
2023/09/07 05:16:31;;;;;;;;;;;;;;;;;;5079179;28;20398;-67
2023/09/07 05:18:58;;;;;;;;;;;;;;;;;;5093082;28;19959;-66
2023/09/07 05:21:25;;;;;;;;;;;;;;;;;;5093883;28;20448;-67
2023/09/07 05:23:52;;;;;;;;;;;;;;;;;;5078769;28;19978;-67
2023/09/07 05:26:19;;;;;;;;;;;;;;;;;;5070069;28;20421;-67
2023/09/07 05:28:46;;;;;;;;;;;;;;;;;;5071925;28;19967;-67
2023/09/07 05:31:13;;;;;;;;;;;;;;;;;;5074349;28;19924;-67
2023/09/07 05:33:40;;;;;;;;;;;;;;;;;;5084967;28;19928;-67
2023/09/07 05:36:07;;;;;;;;;;;;;;;;;;5086510;28;19955;-67
2023/09/07 05:38:34;;;;;;;;;;;;;;;;;;5079047;28;19924;-67
2023/09/07 05:41:01;;;;;;;;;;;;;;;;;;5073069;28;20367;-68
2023/09/07 05:43:28;;;;;;;;;;;;;;;;;;5069313;28;19932;-67
2023/09/07 05:45:55;;;;;;;;;;;;;;;;;;5066422;28;19986;-67
2023/09/07 05:48:22;;;;;;;;;;;;;;;;;;5065691;28;19933;-67
2023/09/07 05:50:49;;;;;;;;;;;;;;;;;;5061753;28;19925;-67
2023/09/07 05:53:16;;;;;;;;;;;;;;;;;;5063077;28;19982;-67
2023/09/07 05:55:43;;;;;;;;;;;;;;;;;;5067602;28;20284;-67
2023/09/07 05:58:10;;;;;;;;;;;;;;;;;;5070322;28;19978;-67
2023/09/07 06:00:39;;;;;;;;;;;;;;;;;;5067727;28;20337;-67
2023/09/07 06:03:06;;;;;;;;;;;;;;;;;;5070720;28;20348;-66
2023/09/07 06:05:33;;;;;;;;;;;;;;;;;;5070636;28;19978;-67
2023/09/07 06:08:00;;;;;;;;;;;;;;;;;;5069428;28;19925;-66
2023/09/07 06:10:27;;;;;;;;;;;;;;;;;;5060559;28;19970;-67
2023/09/07 06:12:54;;;;;;;;;;;;;;;;;;5066279;28;19931;-67
2023/09/07 06:15:21;;;;;;;;;;;;;;;;;;5072084;28;19928;-68
2023/09/07 06:17:49;;;;;;;;;;;;;;;;;;5068355;28;19975;-68
2023/09/07 06:20:17;;;;;;;;;;;;;;;;;;5065528;28;20638;-68
2023/09/07 06:22:45;;;;;;;;;;;;;;;;;;5068098;28;19924;-68
2023/09/07 06:25:12;;;;;;;;;;;;;;;;;;5053530;28;19924;-66
2023/09/07 06:27:39;;;;;;;;;;;;;;;;;;5068833;28;19932;-67
2023/09/07 06:30:06;;;;;;;;;;;;;;;;;;5070593;28;19924;-67
2023/09/07 06:32:33;;;;;;;;;;;;;;;;;;5066962;28;19925;-66
2023/09/07 06:35:00;;;;;;;;;;;;;;;;;;5068654;28;20031;-67
2023/09/07 06:37:28;;;;;;;;;;;;;;;;;;5068754;28;19970;-67
2023/09/07 06:39:55;;;;;;;;;;;;;;;;;;5074420;28;19925;-66
2023/09/07 06:42:22;;;;;;;;;;;;;;;;;;5070974;28;19928;-66
2023/09/07 06:44:50;;;;;;;;;;;;;;;;;;5072317;28;19978;-67
2023/09/07 06:47:17;;;;;;;;;;;;;;;;;;5085073;28;20500;-67
2023/09/07 06:49:44;;;;;;;;;;;;;;;;;;5091620;28;19924;-66
2023/09/07 06:52:11;;;;;;;;;;;;;;;;;;5076709;28;19929;-68
2023/09/07 06:54:38;;;;;;;;;;;;;;;;;;5059124;28;19924;-68
2023/09/07 06:57:05;;;;;;;;;;;;;;;;;;5068173;28;19925;-67
2023/09/07 06:59:32;;;;;;;;;;;;;;;;;;5065248;28;20018;-67
2023/09/07 07:02:00;;;;;;;;;;;;;;;;;;5071375;28;20376;-66
2023/09/07 07:04:27;;;;;;;;;;;;;;;;;;5062534;28;19932;-67
2023/09/07 07:06:54;;;;;;;;;;;;;;;;;;5057104;28;20299;-67
2023/09/07 07:09:21;;;;;;;;;;;;;;;;;;5070398;28;19987;-67
2023/09/07 07:11:49;;;;;;;;;;;;;;;;;;5070226;28;20427;-67
2023/09/07 07:14:16;;;;;;;;;;;;;;;;;;5071038;28;20340;-67
2023/09/07 07:16:43;;;;;;;;;;;;;;;;;;5073405;28;19978;-67
2023/09/07 07:19:10;;;;;;;;;;;;;;;;;;5071590;28;19928;-67
2023/09/07 07:21:37;;;;;;;;;;;;;;;;;;5071723;28;20382;-67
2023/09/07 07:24:06;;;;;;;;;;;;;;;;;;5069576;28;20311;-68
2023/09/07 07:26:33;;;;;;;;;;;;;;;;;;5060484;28;20336;-67
2023/09/07 07:29:00;;;;;;;;;;;;;;;;;;5052853;28;19932;-67
2023/09/07 07:31:27;;;;;;;;;;;;;;;;;;5068371;28;20078;-67
2023/09/07 07:33:54;;;;;;;;;;;;;;;;;;5064342;28;20161;-67
2023/09/07 07:36:21;;;;;;;;;;;;;;;;;;5051948;28;19933;-67
2023/09/07 07:38:48;;;;;;;;;;;;;;;;;;5077273;28;20460;-67
2023/09/07 07:41:15;;;;;;;;;;;;;;;;;;5072224;28;19929;-67
2023/09/07 07:43:42;;;;;;;;;;;;;;;;;;5071436;28;20403;-67
2023/09/07 07:46:09;;;;;;;;;;;;;;;;;;5070527;28;19924;-66
2023/09/07 07:48:36;;;;;;;;;;;;;;;;;;5071249;28;19951;-66
2023/09/07 07:51:03;;;;;;;;;;;;;;;;;;5073781;28;19935;-66
2023/09/07 07:53:30;;;;;;;;;;;;;;;;;;5072719;28;20323;-65
2023/09/07 07:55:57;;;;;;;;;;;;;;;;;;5070974;28;19932;-66
2023/09/07 07:58:24;;;;;;;;;;;;;;;;;;5086462;28;19931;-66
2023/09/07 08:00:53;;;;;;;;;;;;;;;;;;5071363;28;20448;-65
2023/09/07 08:03:20;;;;;;;;;;;;;;;;;;5086752;28;19924;-65
2023/09/07 08:05:47;;;;;;;;;;;;;;;;;;5081994;28;19925;-66
2023/09/07 08:08:14;;;;;;;;;;;;;;;;;;5086963;28;19950;-65
2023/09/07 08:10:41;;;;;;;;;;;;;;;;;;5078091;28;20632;-65
2023/09/07 08:13:09;;;;;;;;;;;;;;;;;;5066580;28;19924;-65
2023/09/07 08:15:36;;;;;;;;;;;;;;;;;;5068324;28;19928;-65
2023/09/07 08:18:03;;;;;;;;;;;;;;;;;;5079195;28;20304;-66
2023/09/07 08:20:30;;;;;;;;;;;;;;;;;;5086248;28;20081;-66
2023/09/07 08:22:58;;;;;;;;;;;;;;;;;;5057988;28;19936;-66
2023/09/07 08:25:25;;;;;;;;;;;;;;;;;;5065909;28;19971;-66
2023/09/07 08:27:55;;;;;;;;;;;;;;;;;;5082566;28;19985;-65
2023/09/07 08:30:24;;;;;;;;;;;;;;;;;;5089599;28;20665;-67
2023/09/07 08:32:52;;;;;;;;;;;;;;;;;;5072736;28;19928;-66
2023/09/07 08:35:19;;;;;;;;;;;;;;;;;;5060399;28;19967;-66
2023/09/07 08:37:46;;;;;;;;;;;;;;;;;;5076793;28;19982;-66
2023/09/07 08:40:16;;;;;;;;;;;;;;;;;;5070383;28;20391;-65
2023/09/07 08:42:43;;;;;;;;;;;;;;;;;;5070285;28;20481;-66
2023/09/07 08:45:11;;;;;;;;;;;;;;;;;;5069748;28;20069;-67
2023/09/07 08:47:38;;;;;;;;;;;;;;;;;;5076909;28;19924;-66
2023/09/07 08:50:05;;;;;;;;;;;;;;;;;;5072204;28;20283;-65
2023/09/07 08:52:33;;;;;;;;;;;;;;;;;;5072573;28;19932;-66
2023/09/07 08:55:00;;;;;;;;;;;;;;;;;;5071285;28;20002;-65
2023/09/07 08:57:27;;;;;;;;;;;;;;;;;;5070768;28;20652;-65
2023/09/07 08:59:54;;;;;;;;;;;;;;;;;;5075393;28;19924;-65
2023/09/07 09:02:21;;;;;;;;;;;;;;;;;;5081488;28;20302;-66
2023/09/07 09:04:48;;;;;;;;;;;;;;;;;;5070794;28;19924;-65
2023/09/07 09:07:15;;;;;;;;;;;;;;;;;;5072903;28;19924;-65
2023/09/07 09:09:42;;;;;;;;;;;;;;;;;;5057324;28;19924;-65
2023/09/07 09:12:09;;;;;;;;;;;;;;;;;;5071739;28;20014;-65
2023/09/07 09:14:36;;;;;;;;;;;;;;;;;;5053810;28;19931;-65
2023/09/07 09:17:03;;;;;;;;;;;;;;;;;;5057641;28;19933;-65
2023/09/07 09:19:30;;;;;;;;;;;;;;;;;;5066069;28;20272;-65
2023/09/07 09:21:57;;;;;;;;;;;;;;;;;;5070149;28;19951;-66
2023/09/07 09:24:24;;;;;;;;;;;;;;;;;;5075028;28;19924;-65
2023/09/07 09:26:52;;;;;;;;;;;;;;;;;;5084231;28;19924;-65
2023/09/07 09:29:19;;;;;;;;;;;;;;;;;;5066281;28;19956;-67
2023/09/07 09:31:46;;;;;;;;;;;;;;;;;;5073193;28;19990;-66
2023/09/07 09:34:13;;;;;;;;;;;;;;;;;;5063341;28;19968;-66
2023/09/07 09:36:40;;;;;;;;;;;;;;;;;;5057479;28;20341;-66
2023/09/07 09:39:09;;;;;;;;;;;;;;;;;;5068652;28;19930;-66
2023/09/07 09:41:36;;;;;;;;;;;;;;;;;;5067921;28;19929;-66
2023/09/07 09:44:03;;;;;;;;;;;;;;;;;;5071971;28;19974;-66
2023/09/07 09:46:30;;;;;;;;;;;;;;;;;;5069015;28;19968;-66
2023/09/07 09:48:57;;;;;;;;;;;;;;;;;;5070090;28;19925;-66
2023/09/07 09:51:24;;;;;;;;;;;;;;;;;;5068239;28;19971;-66
2023/09/07 09:53:51;;;;;;;;;;;;;;;;;;5073916;28;19932;-66
2023/09/07 09:56:20;;;;;;;;;;;;;;;;;;5073521;28;19977;-68
2023/09/07 09:58:47;;;;;;;;;;;;;;;;;;5069444;28;20027;-67
2023/09/07 10:01:15;;;;;;;;;;;;;;;;;;5069821;28;20085;-68
2023/09/07 10:03:45;;;;;;;;;;;;;;;;;;5093003;28;20003;-68
2023/09/07 10:06:13;;;;;;;;;;;;;;;;;;5076330;28;20295;-68
2023/09/07 10:08:40;;;;;;;;;;;;;;;;;;5070554;28;20432;-68
2023/09/07 10:11:07;;;;;;;;;;;;;;;;;;5071728;28;19967;-69
2023/09/07 10:13:34;;;;;;;;;;;;;;;;;;5076882;28;19924;-69
2023/09/07 10:16:04;;;;;;;;;;;;;;;;;;5074806;28;19925;-69
2023/09/07 10:18:31;;;;;;;;;;;;;;;;;;5072599;28;20418;-69
2023/09/07 10:20:58;;;;;;;;;;;;;;;;;;5066030;28;19924;-70
2023/09/07 10:23:25;;;;;;;;;;;;;;;;;;5082264;28;19928;-68
2023/09/07 10:25:52;;;;;;;;;;;;;;;;;;5063202;28;20489;-69
2023/09/07 10:28:19;;;;;;;;;;;;;;;;;;5067924;28;19978;-70
2023/09/07 10:30:46;;;;;;;;;;;;;;;;;;5064897;28;19933;-69
2023/09/07 10:33:13;;;;;;;;;;;;;;;;;;5060903;28;19988;-69
2023/09/07 10:35:42;;;;;;;;;;;;;;;;;;5074304;28;20399;-69
2023/09/07 10:38:09;;;;;;;;;;;;;;;;;;5065289;28;20428;-68
2023/09/07 10:40:36;;;;;;;;;;;;;;;;;;5077282;28;19983;-69
2023/09/07 10:43:04;;;;;;;;;;;;;;;;;;5072289;28;19925;-69
2023/09/07 10:45:31;;;;;;;;;;;;;;;;;;5056399;28;19924;-68
2023/09/07 10:47:58;;;;;;;;;;;;;;;;;;5069128;28;19932;-69
2023/09/07 10:50:25;;;;;;;;;;;;;;;;;;5066915;28;20382;-69
2023/09/07 10:52:53;;;;;;;;;;;;;;;;;;5073580;28;19924;-69
2023/09/07 10:55:20;;;;;;;;;;;;;;;;;;5069633;28;20393;-68
2023/09/07 10:57:47;;;;;;;;;;;;;;;;;;5080787;28;19974;-68
2023/09/07 11:00:14;;;;;;;;;;;;;;;;;;5058781;28;19935;-69
2023/09/07 11:02:41;;;;;;;;;;;;;;;;;;5059044;28;19946;-68
2023/09/07 11:05:08;;;;;;;;;;;;;;;;;;5064123;28;19970;-69
2023/09/07 11:07:35;;;;;;;;;;;;;;;;;;5059041;28;19933;-69
2023/09/07 11:10:04;;;;;;;;;;;;;;;;;;5069953;28;19987;-68
2023/09/07 11:12:31;;;;;;;;;;;;;;;;;;5079487;28;20323;-68
2023/09/07 11:14:58;;;;;;;;;;;;;;;;;;5084321;28;19930;-69
2023/09/07 11:17:25;;;;;;;;;;;;;;;;;;5074228;28;19969;-70
2023/09/07 11:19:52;;;;;;;;;;;;;;;;;;5088599;28;19970;-69
2023/09/07 11:22:19;;;;;;;;;;;;;;;;;;5075002;28;19928;-70
2023/09/07 11:24:46;;;;;;;;;;;;;;;;;;5073540;28;19928;-69
2023/09/07 11:27:13;;;;;;;;;;;;;;;;;;5065877;28;19929;-70
2023/09/07 11:29:41;;;;;;;;;;;;;;;;;;5071747;28;19924;-69
2023/09/07 11:32:09;;;;;;;;;;;;;;;;;;5078420;28;19925;-69
2023/09/07 11:34:35;;;;;;;;;;;;;;;;;;5061679;28;20350;-68
2023/09/07 11:37:03;;;;;;;;;;;;;;;;;;5072374;28;19925;-69
2023/09/07 11:39:30;;;;;;;;;;;;;;;;;;5073384;28;19924;-69
2023/09/07 11:41:57;;;;;;;;;;;;;;;;;;5060410;28;19925;-69
2023/09/07 11:44:24;;;;;;;;;;;;;;;;;;5066181;28;19925;-69
2023/09/07 11:46:51;;;;;;;;;;;;;;;;;;5077047;28;20293;-69
2023/09/07 11:49:21;;;;;;;;;;;;;;;;;;5075399;28;19924;-69
2023/09/07 11:51:49;;;;;;;;;;;;;;;;;;5065319;28;19924;-68
2023/09/07 11:54:16;;;;;;;;;;;;;;;;;;5079718;28;19923;-68
2023/09/07 11:56:44;;;;;;;;;;;;;;;;;;5075570;28;19933;-69
2023/09/07 11:59:11;;;;;;;;;;;;;;;;;;5076214;28;19931;-69
2023/09/07 12:01:39;;;;;;;;;;;;;;;;;;5069089;28;19931;-70
2023/09/07 12:04:06;;;;;;;;;;;;;;;;;;5070138;28;19928;-70
2023/09/07 12:06:33;;;;;;;;;;;;;;;;;;5076719;28;19940;-69
2023/09/07 12:09:00;;;;;;;;;;;;;;;;;;5073741;28;19924;-69
2023/09/07 12:11:27;;;;;;;;;;;;;;;;;;5073853;28;19924;-70
2023/09/07 12:13:54;;;;;;;;;;;;;;;;;;5067953;28;20038;-70
2023/09/07 12:16:21;;;;;;;;;;;;;;;;;;5083587;28;19924;-68
2023/09/07 12:18:48;;;;;;;;;;;;;;;;;;5084220;28;19923;-70
2023/09/07 12:21:15;;;;;;;;;;;;;;;;;;5084077;28;19986;-69
2023/09/07 12:23:42;;;;;;;;;;;;;;;;;;5080402;28;19924;-69
2023/09/07 12:26:09;;;;;;;;;;;;;;;;;;5067661;28;19932;-69
2023/09/07 12:28:36;;;;;;;;;;;;;;;;;;5072836;28;19972;-69
2023/09/07 12:31:04;;;;;;;;;;;;;;;;;;5074234;28;20345;-69
2023/09/07 12:33:32;;;;;;;;;;;;;;;;;;5072997;28;19925;-69
2023/09/07 12:35:59;;;;;;;;;;;;;;;;;;5074006;28;19930;-69
2023/09/07 12:38:28;;;;;;;;;;;;;;;;;;5071257;28;19932;-69
2023/09/07 12:40:55;;;;;;;;;;;;;;;;;;5074110;28;19928;-69
2023/09/07 12:43:24;;;;;;;;;;;;;;;;;;5063483;28;19924;-69
2023/09/07 12:45:51;;;;;;;;;;;;;;;;;;5077314;28;19999;-69
2023/09/07 12:48:18;;;;;;;;;;;;;;;;;;5082985;28;19924;-70
2023/09/07 12:50:46;;;;;;;;;;;;;;;;;;5069710;28;20391;-70
2023/09/07 12:53:13;;;;;;;;;;;;;;;;;;5071145;28;19924;-67
2023/09/07 12:55:39;;;;;;;;;;;;;;;;;;5087807;28;20008;-68
2023/09/07 12:58:06;;;;;;;;;;;;;;;;;;5072777;28;19933;-69
2023/09/07 13:00:33;;;;;;;;;;;;;;;;;;5054266;28;20430;-70
2023/09/07 13:03:00;;;;;;;;;;;;;;;;;;5054362;28;19979;-71
2023/09/07 13:05:27;;;;;;;;;;;;;;;;;;5068255;28;19933;-71
2023/09/07 13:07:56;;;;;;;;;;;;;;;;;;5052962;28;19925;-71
2023/09/07 13:10:23;;;;;;;;;;;;;;;;;;5054585;28;19925;-71
2023/09/07 13:12:50;;;;;;;;;;;;;;;;;;5071558;28;20387;-70
2023/09/07 13:15:17;;;;;;;;;;;;;;;;;;5069159;28;19928;-72
2023/09/07 13:17:44;;;;;;;;;;;;;;;;;;5068463;28;20375;-70
2023/09/07 13:20:12;;;;;;;;;;;;;;;;;;5057146;28;19933;-70
2023/09/07 13:22:39;;;;;;;;;;;;;;;;;;5081111;28;19947;-71
2023/09/07 13:25:06;;;;;;;;;;;;;;;;;;5083297;28;20022;-70
2023/09/07 13:27:33;;;;;;;;;;;;;;;;;;5073788;28;19935;-70
2023/09/07 13:30:01;;;;;;;;;;;;;;;;;;5064924;28;19959;-68
2023/09/07 13:32:29;;;;;;;;;;;;;;;;;;5075621;28;19929;-68
2023/09/07 13:34:57;;;;;;;;;;;;;;;;;;5084988;28;19924;-69
2023/09/07 13:37:24;;;;;;;;;;;;;;;;;;5082680;28;19924;-67
2023/09/07 13:39:51;;;;;;;;;;;;;;;;;;5070896;28;19924;-68
2023/09/07 13:42:18;;;;;;;;;;;;;;;;;;5067220;28;19925;-68
2023/09/07 13:44:47;;;;;;;;;;;;;;;;;;5073956;28;19959;-68
2023/09/07 13:47:14;;;;;;;;;;;;;;;;;;5072825;28;19939;-68
2023/09/07 13:49:41;;;;;;;;;;;;;;;;;;5059765;28;19939;-68
2023/09/07 13:52:08;;;;;;;;;;;;;;;;;;5061513;28;20379;-69
2023/09/07 13:54:35;;;;;;;;;;;;;;;;;;5076738;28;19968;-68
2023/09/07 13:57:02;;;;;;;;;;;;;;;;;;5060414;28;20371;-68
2023/09/07 13:59:32;;;;;;;;;;;;;;;;;;5070382;28;19978;-68
2023/09/07 14:01:59;;;;;;;;;;;;;;;;;;5084913;28;20424;-68
2023/09/07 14:04:26;;;;;;;;;;;;;;;;;;5082872;28;19974;-68
2023/09/07 14:06:53;;;;;;;;;;;;;;;;;;5069797;28;19928;-68
2023/09/07 14:09:23;;;;;;;;;;;;;;;;;;5070850;28;20299;-68
2023/09/07 14:11:50;;;;;;;;;;;;;;;;;;5071050;28;19980;-67
2023/09/07 14:14:17;;;;;;;;;;;;;;;;;;5058642;28;19932;-67
2023/09/07 14:16:44;;;;;;;;;;;;;;;;;;5070416;28;20323;-67
2023/09/07 14:19:11;;;;;;;;;;;;;;;;;;5063673;28;20043;-67
2023/09/07 14:21:38;;;;;;;;;;;;;;;;;;5080589;28;20049;-67
2023/09/07 14:24:05;;;;;;;;;;;;;;;;;;5072173;28;19925;-70
2023/09/07 14:26:33;;;;;;;;;;;;;;;;;;5064233;28;19924;-69
2023/09/07 14:29:00;;;;;;;;;;;;;;;;;;5060879;28;19946;-68
2023/09/07 14:31:27;;;;;;;;;;;;;;;;;;5065122;28;19975;-68
2023/09/07 14:33:54;;;;;;;;;;;;;;;;;;5064864;28;19975;-68
2023/09/07 14:36:21;;;;;;;;;;;;;;;;;;5067967;28;19932;-69
2023/09/07 14:38:49;;;;;;;;;;;;;;;;;;5068019;28;19924;-68
2023/09/07 14:41:19;;;;;;;;;;;;;;;;;;5061309;28;19924;-68
2023/09/07 14:43:46;;;;;;;;;;;;;;;;;;5069161;28;19986;-68
2023/09/07 14:46:13;;;;;;;;;;;;;;;;;;5067667;28;19925;-71
2023/09/07 14:48:41;;;;;;;;;;;;;;;;;;5062304;28;19924;-68
2023/09/07 14:51:08;;;;;;;;;;;;;;;;;;5067303;28;19982;-69
2023/09/07 14:53:35;;;;;;;;;;;;;;;;;;5061482;28;19936;-69
2023/09/07 14:56:02;;;;;;;;;;;;;;;;;;5062127;28;19932;-69
2023/09/07 14:58:31;;;;;;;;;;;;;;;;;;5065237;28;19924;-69
2023/09/07 15:00:58;;;;;;;;;;;;;;;;;;5068074;28;19925;-70
2023/09/07 15:03:26;;;;;;;;;;;;;;;;;;5069850;28;19971;-69
2023/09/07 15:05:54;;;;;;;;;;;;;;;;;;5058556;28;20106;-68
2023/09/07 15:08:21;;;;;;;;;;;;;;;;;;5058119;28;19924;-69
2023/09/07 15:10:48;;;;;;;;;;;;;;;;;;5065998;28;20330;-68
2023/09/07 15:13:15;;;;;;;;;;;;;;;;;;5065181;28;19924;-69
2023/09/07 15:15:42;;;;;;;;;;;;;;;;;;5060833;28;19994;-69
2023/09/07 15:18:09;;;;;;;;;;;;;;;;;;5064904;28;19925;-69
2023/09/07 15:20:36;;;;;;;;;;;;;;;;;;5065926;28;19924;-69
2023/09/07 15:23:03;;;;;;;;;;;;;;;;;;5068547;28;20334;-69
2023/09/07 15:25:30;;;;;;;;;;;;;;;;;;5062943;28;19987;-69
2023/09/07 15:27:57;;;;;;;;;;;;;;;;;;5062832;28;19931;-69
2023/09/07 15:30:24;;;;;;;;;;;;;;;;;;5065416;28;19970;-69
2023/09/07 15:32:57;;;;;;;;;;;;;;;;;;5064450;28;19981;-69
2023/09/07 15:35:24;;;;;;;;;;;;;;;;;;5065366;28;19978;-69
2023/09/07 15:37:51;;;;;;;;;;;;;;;;;;5069026;28;20265;-69
2023/09/07 15:40:18;;;;;;;;;;;;;;;;;;5063304;28;19970;-69
2023/09/07 15:42:44;;;;;;;;;;;;;;;;;;5063042;28;19924;-69
2023/09/07 15:45:11;;;;;;;;;;;;;;;;;;5068691;28;20444;-69
2023/09/07 15:47:38;;;;;;;;;;;;;;;;;;5065336;28;19978;-69
2023/09/07 15:50:07;;;;;;;;;;;;;;;;;;5064245;28;20338;-69
2023/09/07 15:52:35;;;;;;;;;;;;;;;;;;5069653;28;19928;-69
2023/09/07 15:55:02;;;;;;;;;;;;;;;;;;5071108;28;19960;-70
2023/09/07 15:57:29;;;;;;;;;;;;;;;;;;5068272;28;20050;-70
2023/09/07 15:59:58;;;;;;;;;;;;;;;;;;5072619;28;19983;-69
2023/09/07 16:02:25;;;;;;;;;;;;;;;;;;5072922;28;20420;-68
2023/09/07 16:04:53;;;;;;;;;;;;;;;;;;5072977;28;19970;-69
2023/09/07 16:07:20;;;;;;;;;;;;;;;;;;5061174;28;20311;-69
2023/09/07 16:09:47;;;;;;;;;;;;;;;;;;5067687;28;20346;-70
2023/09/07 16:12:14;;;;;;;;;;;;;;;;;;5072749;28;19925;-69
2023/09/07 16:14:41;;;;;;;;;;;;;;;;;;5074080;28;19928;-70
2023/09/07 16:17:08;;;;;;;;;;;;;;;;;;5074456;28;19940;-70
2023/09/07 16:19:35;;;;;;;;;;;;;;;;;;5067070;28;20387;-69
2023/09/07 16:22:06;;;;;;;;;;;;;;;;;;5069062;28;19929;-69
2023/09/07 16:24:33;;;;;;;;;;;;;;;;;;5071534;28;19971;-69
2023/09/07 16:27:00;;;;;;;;;;;;;;;;;;5064305;28;19931;-69
2023/09/07 16:29:27;;;;;;;;;;;;;;;;;;5067843;28;19951;-69
2023/09/07 16:31:54;;;;;;;;;;;;;;;;;;5070743;28;19978;-69
2023/09/07 16:34:22;;;;;;;;;;;;;;;;;;5064078;28;19933;-69
2023/09/07 16:36:49;;;;;;;;;;;;;;;;;;5069911;28;19931;-69
2023/09/07 16:39:16;;;;;;;;;;;;;;;;;;5065851;28;20291;-69
2023/09/07 16:41:43;;;;;;;;;;;;;;;;;;5064001;28;19924;-68
2023/09/07 16:44:11;;;;;;;;;;;;;;;;;;5058539;28;19931;-68